sensor_id;sensor_type;location;lat;lon;timestamp;P1;durP1;ratioP1;P2;durP2;ratioP2
8254;SDS011;4167;48.162;11.542;2022-07-12T00:01:43;3.73;;;3.23;;
8254;SDS011;4167;48.162;11.542;2022-07-12T00:04:10;3.97;;;3.57;;
8254;SDS011;4167;48.162;11.542;2022-07-12T00:06:37;4.30;;;3.87;;
8254;SDS011;4167;48.162;11.542;2022-07-12T00:09:04;4.57;;;3.37;;
8254;SDS011;4167;48.162;11.542;2022-07-12T00:11:30;3.93;;;3.53;;
8254;SDS011;4167;48.162;11.542;2022-07-12T00:13:57;4.40;;;4.00;;
8254;SDS011;4167;48.162;11.542;2022-07-12T00:16:26;4.67;;;3.50;;
8254;SDS011;4167;48.162;11.542;2022-07-12T00:18:52;4.60;;;3.77;;
8254;SDS011;4167;48.162;11.542;2022-07-12T00:21:20;5.50;;;4.00;;
8254;SDS011;4167;48.162;11.542;2022-07-12T00:23:47;6.67;;;4.10;;
8254;SDS011;4167;48.162;11.542;2022-07-12T00:26:14;4.33;;;3.93;;
8254;SDS011;4167;48.162;11.542;2022-07-12T00:28:41;3.93;;;3.57;;
8254;SDS011;4167;48.162;11.542;2022-07-12T00:31:08;4.43;;;3.97;;
8254;SDS011;4167;48.162;11.542;2022-07-12T00:33:36;4.70;;;4.27;;
8254;SDS011;4167;48.162;11.542;2022-07-12T00:36:03;6.00;;;4.33;;
8254;SDS011;4167;48.162;11.542;2022-07-12T00:38:30;4.20;;;3.90;;
8254;SDS011;4167;48.162;11.542;2022-07-12T00:40:57;4.33;;;3.93;;
8254;SDS011;4167;48.162;11.542;2022-07-12T00:43:24;5.07;;;3.70;;
8254;SDS011;4167;48.162;11.542;2022-07-12T00:45:50;4.00;;;3.70;;
8254;SDS011;4167;48.162;11.542;2022-07-12T00:48:17;4.00;;;3.60;;
8254;SDS011;4167;48.162;11.542;2022-07-12T00:50:46;4.23;;;3.83;;
8254;SDS011;4167;48.162;11.542;2022-07-12T00:53:14;4.97;;;4.10;;
8254;SDS011;4167;48.162;11.542;2022-07-12T00:55:43;5.43;;;4.50;;
8254;SDS011;4167;48.162;11.542;2022-07-12T00:58:11;5.33;;;4.43;;
8254;SDS011;4167;48.162;11.542;2022-07-12T01:00:38;5.07;;;4.60;;
8254;SDS011;4167;48.162;11.542;2022-07-12T01:03:05;4.93;;;4.53;;
8254;SDS011;4167;48.162;11.542;2022-07-12T01:05:31;4.10;;;3.80;;
8254;SDS011;4167;48.162;11.542;2022-07-12T01:08:00;6.13;;;3.87;;
8254;SDS011;4167;48.162;11.542;2022-07-12T01:10:27;5.20;;;4.23;;
8254;SDS011;4167;48.162;11.542;2022-07-12T01:12:56;4.37;;;3.90;;
8254;SDS011;4167;48.162;11.542;2022-07-12T01:15:24;5.07;;;4.60;;
8254;SDS011;4167;48.162;11.542;2022-07-12T01:17:52;4.73;;;4.23;;
8254;SDS011;4167;48.162;11.542;2022-07-12T01:20:21;4.50;;;4.10;;
8254;SDS011;4167;48.162;11.542;2022-07-12T01:22:51;4.93;;;4.03;;
8254;SDS011;4167;48.162;11.542;2022-07-12T01:25:19;4.87;;;4.07;;
8254;SDS011;4167;48.162;11.542;2022-07-12T01:27:46;5.57;;;4.33;;
8254;SDS011;4167;48.162;11.542;2022-07-12T01:30:13;5.10;;;4.60;;
8254;SDS011;4167;48.162;11.542;2022-07-12T01:32:40;5.90;;;4.67;;
8254;SDS011;4167;48.162;11.542;2022-07-12T01:35:08;5.27;;;4.70;;
8254;SDS011;4167;48.162;11.542;2022-07-12T01:37:35;7.00;;;5.07;;
8254;SDS011;4167;48.162;11.542;2022-07-12T01:40:05;4.83;;;4.40;;
8254;SDS011;4167;48.162;11.542;2022-07-12T01:42:34;4.97;;;4.50;;
8254;SDS011;4167;48.162;11.542;2022-07-12T01:45:03;5.00;;;4.60;;
8254;SDS011;4167;48.162;11.542;2022-07-12T01:47:31;6.50;;;4.90;;
8254;SDS011;4167;48.162;11.542;2022-07-12T01:49:59;5.07;;;4.47;;
8254;SDS011;4167;48.162;11.542;2022-07-12T01:52:26;5.00;;;4.47;;
8254;SDS011;4167;48.162;11.542;2022-07-12T01:54:53;5.93;;;4.40;;
8254;SDS011;4167;48.162;11.542;2022-07-12T01:57:22;5.27;;;4.77;;
8254;SDS011;4167;48.162;11.542;2022-07-12T01:59:51;6.17;;;5.03;;
8254;SDS011;4167;48.162;11.542;2022-07-12T02:02:17;6.07;;;4.90;;
8254;SDS011;4167;48.162;11.542;2022-07-12T02:04:44;6.87;;;5.40;;
8254;SDS011;4167;48.162;11.542;2022-07-12T02:07:11;6.27;;;5.20;;
8254;SDS011;4167;48.162;11.542;2022-07-12T02:09:38;5.27;;;4.80;;
8254;SDS011;4167;48.162;11.542;2022-07-12T02:12:05;6.30;;;5.43;;
8254;SDS011;4167;48.162;11.542;2022-07-12T02:14:34;5.33;;;4.83;;
8254;SDS011;4167;48.162;11.542;2022-07-12T02:17:01;6.30;;;4.90;;
8254;SDS011;4167;48.162;11.542;2022-07-12T02:19:27;6.27;;;5.00;;
8254;SDS011;4167;48.162;11.542;2022-07-12T02:21:54;8.97;;;5.13;;
8254;SDS011;4167;48.162;11.542;2022-07-12T02:24:21;5.40;;;4.87;;
8254;SDS011;4167;48.162;11.542;2022-07-12T02:26:48;5.60;;;5.10;;
8254;SDS011;4167;48.162;11.542;2022-07-12T02:29:15;5.53;;;4.50;;
8254;SDS011;4167;48.162;11.542;2022-07-12T02:31:43;5.40;;;4.90;;
8254;SDS011;4167;48.162;11.542;2022-07-12T02:34:10;5.03;;;4.63;;
8254;SDS011;4167;48.162;11.542;2022-07-12T02:36:37;5.53;;;4.87;;
8254;SDS011;4167;48.162;11.542;2022-07-12T02:39:03;4.80;;;4.37;;
8254;SDS011;4167;48.162;11.542;2022-07-12T02:41:30;8.47;;;5.93;;
8254;SDS011;4167;48.162;11.542;2022-07-12T02:43:58;5.10;;;4.60;;
8254;SDS011;4167;48.162;11.542;2022-07-12T02:46:25;6.97;;;5.53;;
8254;SDS011;4167;48.162;11.542;2022-07-12T02:48:53;4.83;;;4.40;;
8254;SDS011;4167;48.162;11.542;2022-07-12T02:51:20;5.23;;;4.80;;
8254;SDS011;4167;48.162;11.542;2022-07-12T02:53:47;6.57;;;5.83;;
8254;SDS011;4167;48.162;11.542;2022-07-12T02:56:14;6.07;;;5.47;;
8254;SDS011;4167;48.162;11.542;2022-07-12T02:58:40;5.43;;;4.93;;
8254;SDS011;4167;48.162;11.542;2022-07-12T03:01:07;5.87;;;5.27;;
8254;SDS011;4167;48.162;11.542;2022-07-12T03:03:35;8.00;;;6.43;;
8254;SDS011;4167;48.162;11.542;2022-07-12T03:06:04;6.60;;;5.93;;
8254;SDS011;4167;48.162;11.542;2022-07-12T03:08:31;5.63;;;5.10;;
8254;SDS011;4167;48.162;11.542;2022-07-12T03:10:58;10.10;;;5.50;;
8254;SDS011;4167;48.162;11.542;2022-07-12T03:13:24;6.93;;;5.63;;
8254;SDS011;4167;48.162;11.542;2022-07-12T03:15:51;6.23;;;5.43;;
8254;SDS011;4167;48.162;11.542;2022-07-12T03:18:18;7.07;;;6.23;;
8254;SDS011;4167;48.162;11.542;2022-07-12T03:20:45;8.90;;;5.73;;
8254;SDS011;4167;48.162;11.542;2022-07-12T03:23:15;6.33;;;5.50;;
8254;SDS011;4167;48.162;11.542;2022-07-12T03:25:41;6.00;;;5.40;;
8254;SDS011;4167;48.162;11.542;2022-07-12T03:28:08;6.03;;;5.43;;
8254;SDS011;4167;48.162;11.542;2022-07-12T03:30:36;6.40;;;5.80;;
8254;SDS011;4167;48.162;11.542;2022-07-12T03:33:02;7.10;;;5.80;;
8254;SDS011;4167;48.162;11.542;2022-07-12T03:35:29;6.23;;;5.70;;
8254;SDS011;4167;48.162;11.542;2022-07-12T03:37:56;6.80;;;5.40;;
8254;SDS011;4167;48.162;11.542;2022-07-12T03:40:24;5.97;;;5.37;;
8254;SDS011;4167;48.162;11.542;2022-07-12T03:42:52;6.47;;;5.77;;
8254;SDS011;4167;48.162;11.542;2022-07-12T03:45:18;7.00;;;5.90;;
8254;SDS011;4167;48.162;11.542;2022-07-12T03:47:46;6.97;;;6.27;;
8254;SDS011;4167;48.162;11.542;2022-07-12T03:50:14;8.93;;;6.30;;
8254;SDS011;4167;48.162;11.542;2022-07-12T03:52:41;6.47;;;5.83;;
8254;SDS011;4167;48.162;11.542;2022-07-12T03:55:09;6.93;;;5.87;;
8254;SDS011;4167;48.162;11.542;2022-07-12T03:57:38;8.13;;;6.33;;
8254;SDS011;4167;48.162;11.542;2022-07-12T04:00:06;8.97;;;6.60;;
8254;SDS011;4167;48.162;11.542;2022-07-12T04:02:36;5.17;;;4.57;;
8254;SDS011;4167;48.162;11.542;2022-07-12T04:05:05;5.40;;;4.50;;
8254;SDS011;4167;48.162;11.542;2022-07-12T04:07:33;4.97;;;4.43;;
8254;SDS011;4167;48.162;11.542;2022-07-12T04:10:00;4.03;;;3.63;;
8254;SDS011;4167;48.162;11.542;2022-07-12T04:12:27;4.90;;;3.90;;
8254;SDS011;4167;48.162;11.542;2022-07-12T04:14:56;4.00;;;3.60;;
8254;SDS011;4167;48.162;11.542;2022-07-12T04:17:22;6.22;;;4.20;;
8254;SDS011;4167;48.162;11.542;2022-07-12T04:19:50;3.85;;;3.45;;
8254;SDS011;4167;48.162;11.542;2022-07-12T04:22:17;3.70;;;3.30;;
8254;SDS011;4167;48.162;11.542;2022-07-12T04:24:44;4.63;;;4.07;;
8254;SDS011;4167;48.162;11.542;2022-07-12T04:27:11;4.95;;;3.80;;
8254;SDS011;4167;48.162;11.542;2022-07-12T04:29:38;5.43;;;3.53;;
8254;SDS011;4167;48.162;11.542;2022-07-12T04:32:07;3.97;;;3.58;;
8254;SDS011;4167;48.162;11.542;2022-07-12T04:34:34;4.63;;;3.35;;
8254;SDS011;4167;48.162;11.542;2022-07-12T04:37:01;4.80;;;3.42;;
8254;SDS011;4167;48.162;11.542;2022-07-12T04:39:28;3.95;;;3.15;;
8254;SDS011;4167;48.162;11.542;2022-07-12T04:41:55;4.25;;;3.85;;
8254;SDS011;4167;48.162;11.542;2022-07-12T04:44:22;4.20;;;3.80;;
8254;SDS011;4167;48.162;11.542;2022-07-12T04:46:49;12.90;;;4.68;;
8254;SDS011;4167;48.162;11.542;2022-07-12T04:49:18;5.28;;;3.88;;
8254;SDS011;4167;48.162;11.542;2022-07-12T04:51:44;3.63;;;3.33;;
8254;SDS011;4167;48.162;11.542;2022-07-12T04:54:11;6.10;;;3.80;;
8254;SDS011;4167;48.162;11.542;2022-07-12T04:56:38;4.43;;;3.63;;
8254;SDS011;4167;48.162;11.542;2022-07-12T04:59:05;5.22;;;3.33;;
8254;SDS011;4167;48.162;11.542;2022-07-12T05:01:32;4.30;;;3.90;;
8254;SDS011;4167;48.162;11.542;2022-07-12T05:03:59;4.25;;;3.83;;
8254;SDS011;4167;48.162;11.542;2022-07-12T05:06:28;4.28;;;3.85;;
8254;SDS011;4167;48.162;11.542;2022-07-12T05:08:55;5.57;;;4.13;;
8254;SDS011;4167;48.162;11.542;2022-07-12T05:11:21;7.90;;;3.40;;
8254;SDS011;4167;48.162;11.542;2022-07-12T05:13:48;4.80;;;3.58;;
8254;SDS011;4167;48.162;11.542;2022-07-12T05:16:15;7.03;;;3.88;;
8254;SDS011;4167;48.162;11.542;2022-07-12T05:18:42;4.82;;;4.43;;
8254;SDS011;4167;48.162;11.542;2022-07-12T05:21:09;3.95;;;3.35;;
8254;SDS011;4167;48.162;11.542;2022-07-12T05:23:38;7.30;;;3.30;;
8254;SDS011;4167;48.162;11.542;2022-07-12T05:26:05;5.45;;;2.92;;
8254;SDS011;4167;48.162;11.542;2022-07-12T05:28:32;18.23;;;7.80;;
8254;SDS011;4167;48.162;11.542;2022-07-12T05:30:59;5.88;;;3.13;;
8254;SDS011;4167;48.162;11.542;2022-07-12T05:33:26;4.10;;;3.20;;
8254;SDS011;4167;48.162;11.542;2022-07-12T05:35:53;4.22;;;2.92;;
8254;SDS011;4167;48.162;11.542;2022-07-12T05:38:20;5.75;;;2.72;;
8254;SDS011;4167;48.162;11.542;2022-07-12T05:40:48;3.00;;;2.53;;
8254;SDS011;4167;48.162;11.542;2022-07-12T05:43:15;2.17;;;2.03;;
8254;SDS011;4167;48.162;11.542;2022-07-12T05:45:42;4.43;;;2.40;;
8254;SDS011;4167;48.162;11.542;2022-07-12T05:48:09;4.03;;;2.22;;
8254;SDS011;4167;48.162;11.542;2022-07-12T05:50:37;5.07;;;2.20;;
8254;SDS011;4167;48.162;11.542;2022-07-12T05:53:04;3.03;;;2.10;;
8254;SDS011;4167;48.162;11.542;2022-07-12T05:55:50;4.20;;;2.05;;
8254;SDS011;4167;48.162;11.542;2022-07-12T05:58:18;2.47;;;1.95;;
8254;SDS011;4167;48.162;11.542;2022-07-12T06:00:46;2.20;;;2.00;;
8254;SDS011;4167;48.162;11.542;2022-07-12T06:03:13;3.60;;;2.33;;
8254;SDS011;4167;48.162;11.542;2022-07-12T06:05:41;3.55;;;1.98;;
8254;SDS011;4167;48.162;11.542;2022-07-12T06:08:08;2.35;;;2.10;;
8254;SDS011;4167;48.162;11.542;2022-07-12T06:10:35;2.90;;;1.98;;
8254;SDS011;4167;48.162;11.542;2022-07-12T06:13:03;1.50;;;1.40;;
8254;SDS011;4167;48.162;11.542;2022-07-12T06:15:30;1.63;;;1.52;;
8254;SDS011;4167;48.162;11.542;2022-07-12T06:17:57;1.25;;;1.05;;
8254;SDS011;4167;48.162;11.542;2022-07-12T06:20:25;1.38;;;1.13;;
8254;SDS011;4167;48.162;11.542;2022-07-12T06:22:52;1.58;;;1.38;;
8254;SDS011;4167;48.162;11.542;2022-07-12T06:25:20;1.00;;;0.93;;
8254;SDS011;4167;48.162;11.542;2022-07-12T06:27:46;1.90;;;1.65;;
8254;SDS011;4167;48.162;11.542;2022-07-12T06:30:16;1.67;;;1.40;;
8254;SDS011;4167;48.162;11.542;2022-07-12T06:32:43;1.30;;;1.20;;
8254;SDS011;4167;48.162;11.542;2022-07-12T06:35:11;1.48;;;1.30;;
8254;SDS011;4167;48.162;11.542;2022-07-12T06:37:38;1.27;;;1.20;;
8254;SDS011;4167;48.162;11.542;2022-07-12T06:40:05;0.98;;;0.98;;
8254;SDS011;4167;48.162;11.542;2022-07-12T06:42:33;2.15;;;1.15;;
8254;SDS011;4167;48.162;11.542;2022-07-12T06:45:00;2.10;;;1.23;;
8254;SDS011;4167;48.162;11.542;2022-07-12T06:47:28;1.55;;;1.45;;
8254;SDS011;4167;48.162;11.542;2022-07-12T06:49:55;1.13;;;1.13;;
8254;SDS011;4167;48.162;11.542;2022-07-12T06:52:22;3.33;;;1.58;;
8254;SDS011;4167;48.162;11.542;2022-07-12T06:54:49;2.05;;;1.17;;
8254;SDS011;4167;48.162;11.542;2022-07-12T06:57:17;1.60;;;1.00;;
8254;SDS011;4167;48.162;11.542;2022-07-12T06:59:44;2.05;;;0.90;;
8254;SDS011;4167;48.162;11.542;2022-07-12T07:02:11;1.00;;;1.00;;
8254;SDS011;4167;48.162;11.542;2022-07-12T07:04:39;1.45;;;1.35;;
8254;SDS011;4167;48.162;11.542;2022-07-12T07:07:06;1.13;;;1.10;;
8254;SDS011;4167;48.162;11.542;2022-07-12T07:09:33;0.73;;;0.73;;
8254;SDS011;4167;48.162;11.542;2022-07-12T07:12:00;1.50;;;1.40;;
8254;SDS011;4167;48.162;11.542;2022-07-12T07:14:27;1.77;;;1.40;;
8254;SDS011;4167;48.162;11.542;2022-07-12T07:16:54;3.60;;;1.33;;
8254;SDS011;4167;48.162;11.542;2022-07-12T07:19:21;1.85;;;1.45;;
8254;SDS011;4167;48.162;11.542;2022-07-12T07:21:51;2.65;;;1.48;;
8254;SDS011;4167;48.162;11.542;2022-07-12T07:24:19;1.83;;;1.25;;
8254;SDS011;4167;48.162;11.542;2022-07-12T07:26:46;1.20;;;1.08;;
8254;SDS011;4167;48.162;11.542;2022-07-12T07:29:12;1.88;;;1.35;;
8254;SDS011;4167;48.162;11.542;2022-07-12T07:31:56;1.67;;;1.05;;
8254;SDS011;4167;48.162;11.542;2022-07-12T07:34:23;1.00;;;1.00;;
8254;SDS011;4167;48.162;11.542;2022-07-12T07:36:52;1.08;;;0.98;;
8254;SDS011;4167;48.162;11.542;2022-07-12T07:39:19;1.17;;;1.08;;
8254;SDS011;4167;48.162;11.542;2022-07-12T07:41:45;1.25;;;1.20;;
8254;SDS011;4167;48.162;11.542;2022-07-12T07:44:12;1.75;;;1.23;;
8254;SDS011;4167;48.162;11.542;2022-07-12T07:46:39;0.98;;;0.85;;
8254;SDS011;4167;48.162;11.542;2022-07-12T07:49:05;1.48;;;1.33;;
8254;SDS011;4167;48.162;11.542;2022-07-12T07:51:32;1.88;;;1.10;;
8254;SDS011;4167;48.162;11.542;2022-07-12T07:54:00;1.40;;;1.30;;
8254;SDS011;4167;48.162;11.542;2022-07-12T07:56:27;2.50;;;2.30;;
8254;SDS011;4167;48.162;11.542;2022-07-12T07:58:54;1.27;;;1.17;;
8254;SDS011;4167;48.162;11.542;2022-07-12T08:01:21;1.40;;;1.15;;
8254;SDS011;4167;48.162;11.542;2022-07-12T08:04:07;3.75;;;1.50;;
8254;SDS011;4167;48.162;11.542;2022-07-12T08:06:34;1.88;;;1.20;;
8254;SDS011;4167;48.162;11.542;2022-07-12T08:09:03;0.73;;;0.70;;
8254;SDS011;4167;48.162;11.542;2022-07-12T08:11:30;1.05;;;1.00;;
8254;SDS011;4167;48.162;11.542;2022-07-12T08:13:57;4.13;;;1.02;;
8254;SDS011;4167;48.162;11.542;2022-07-12T08:16:24;2.65;;;1.30;;
8254;SDS011;4167;48.162;11.542;2022-07-12T08:18:50;2.15;;;1.25;;
8254;SDS011;4167;48.162;11.542;2022-07-12T08:21:17;3.15;;;1.10;;
8254;SDS011;4167;48.162;11.542;2022-07-12T08:23:44;0.77;;;0.77;;
8254;SDS011;4167;48.162;11.542;2022-07-12T08:26:12;1.02;;;1.00;;
8254;SDS011;4167;48.162;11.542;2022-07-12T08:28:39;2.13;;;1.30;;
8254;SDS011;4167;48.162;11.542;2022-07-12T08:31:06;0.98;;;0.68;;
8254;SDS011;4167;48.162;11.542;2022-07-12T08:33:33;0.95;;;0.82;;
8254;SDS011;4167;48.162;11.542;2022-07-12T08:36:00;2.75;;;1.10;;
8254;SDS011;4167;48.162;11.542;2022-07-12T08:38:27;1.45;;;0.80;;
8254;SDS011;4167;48.162;11.542;2022-07-12T08:40:56;2.45;;;1.00;;
8254;SDS011;4167;48.162;11.542;2022-07-12T08:43:25;1.05;;;1.05;;
8254;SDS011;4167;48.162;11.542;2022-07-12T08:45:51;0.88;;;0.85;;
8254;SDS011;4167;48.162;11.542;2022-07-12T08:48:18;0.80;;;0.80;;
8254;SDS011;4167;48.162;11.542;2022-07-12T08:50:59;0.95;;;0.80;;
8254;SDS011;4167;48.162;11.542;2022-07-12T08:53:27;3.42;;;1.30;;
8254;SDS011;4167;48.162;11.542;2022-07-12T08:55:54;1.65;;;1.20;;
8254;SDS011;4167;48.162;11.542;2022-07-12T08:58:21;0.98;;;0.88;;
8254;SDS011;4167;48.162;11.542;2022-07-12T09:00:50;1.40;;;1.00;;
8254;SDS011;4167;48.162;11.542;2022-07-12T09:03:17;1.20;;;1.10;;
8254;SDS011;4167;48.162;11.542;2022-07-12T09:05:49;1.05;;;0.88;;
8254;SDS011;4167;48.162;11.542;2022-07-12T09:08:27;1.00;;;1.00;;
8254;SDS011;4167;48.162;11.542;2022-07-12T09:10:56;3.90;;;1.25;;
8254;SDS011;4167;48.162;11.542;2022-07-12T09:16:20;0.95;;;0.90;;
8254;SDS011;4167;48.162;11.542;2022-07-12T09:18:49;1.38;;;1.27;;
8254;SDS011;4167;48.162;11.542;2022-07-12T09:21:23;1.95;;;1.10;;
8254;SDS011;4167;48.162;11.542;2022-07-12T09:23:52;0.93;;;0.93;;
8254;SDS011;4167;48.162;11.542;2022-07-12T09:26:19;1.10;;;0.80;;
8254;SDS011;4167;48.162;11.542;2022-07-12T09:28:48;1.65;;;1.15;;
8254;SDS011;4167;48.162;11.542;2022-07-12T09:31:16;1.33;;;1.10;;
8254;SDS011;4167;48.162;11.542;2022-07-12T09:36:56;2.47;;;1.02;;
8254;SDS011;4167;48.162;11.542;2022-07-12T09:39:24;1.00;;;0.95;;
8254;SDS011;4167;48.162;11.542;2022-07-12T09:41:54;2.03;;;1.20;;
8254;SDS011;4167;48.162;11.542;2022-07-12T09:44:22;0.80;;;0.80;;
8254;SDS011;4167;48.162;11.542;2022-07-12T09:46:50;1.00;;;1.00;;
8254;SDS011;4167;48.162;11.542;2022-07-12T09:49:18;7.20;;;1.48;;
8254;SDS011;4167;48.162;11.542;2022-07-12T09:51:45;1.27;;;0.95;;
8254;SDS011;4167;48.162;11.542;2022-07-12T09:54:14;2.20;;;1.15;;
8254;SDS011;4167;48.162;11.542;2022-07-12T09:56:43;1.27;;;1.02;;
8254;SDS011;4167;48.162;11.542;2022-07-12T09:59:13;0.80;;;0.80;;
8254;SDS011;4167;48.162;11.542;2022-07-12T10:01:42;1.98;;;1.02;;
8254;SDS011;4167;48.162;11.542;2022-07-12T10:04:10;1.48;;;1.30;;
8254;SDS011;4167;48.162;11.542;2022-07-12T10:06:42;2.17;;;1.00;;
8254;SDS011;4167;48.162;11.542;2022-07-12T10:09:09;1.42;;;1.10;;
8254;SDS011;4167;48.162;11.542;2022-07-12T10:11:36;0.90;;;0.90;;
8254;SDS011;4167;48.162;11.542;2022-07-12T10:14:04;2.30;;;1.20;;
8254;SDS011;4167;48.162;11.542;2022-07-12T10:16:33;1.10;;;1.00;;
8254;SDS011;4167;48.162;11.542;2022-07-12T10:22:03;1.30;;;1.20;;
8254;SDS011;4167;48.162;11.542;2022-07-12T10:24:46;3.42;;;1.30;;
8254;SDS011;4167;48.162;11.542;2022-07-12T10:27:27;1.42;;;1.25;;
8254;SDS011;4167;48.162;11.542;2022-07-12T10:30:12;2.28;;;1.70;;
8254;SDS011;4167;48.162;11.542;2022-07-12T10:32:43;1.83;;;1.20;;
8254;SDS011;4167;48.162;11.542;2022-07-12T10:35:16;2.15;;;1.95;;
8254;SDS011;4167;48.162;11.542;2022-07-12T10:40:42;0.95;;;0.88;;
8254;SDS011;4167;48.162;11.542;2022-07-12T10:43:14;0.80;;;0.80;;
8254;SDS011;4167;48.162;11.542;2022-07-12T10:45:44;1.00;;;1.00;;
8254;SDS011;4167;48.162;11.542;2022-07-12T10:48:20;2.08;;;0.90;;
8254;SDS011;4167;48.162;11.542;2022-07-12T10:50:50;0.95;;;0.90;;
8254;SDS011;4167;48.162;11.542;2022-07-12T10:53:25;1.45;;;1.35;;
8254;SDS011;4167;48.162;11.542;2022-07-12T10:56:11;0.80;;;0.80;;
8254;SDS011;4167;48.162;11.542;2022-07-12T10:58:41;1.13;;;0.90;;
8254;SDS011;4167;48.162;11.542;2022-07-12T11:01:10;2.13;;;0.85;;
8254;SDS011;4167;48.162;11.542;2022-07-12T11:03:38;0.85;;;0.85;;
8254;SDS011;4167;48.162;11.542;2022-07-12T11:06:07;1.15;;;0.75;;
8254;SDS011;4167;48.162;11.542;2022-07-12T11:08:56;0.90;;;0.90;;
8254;SDS011;4167;48.162;11.542;2022-07-12T11:11:25;2.47;;;1.10;;
8254;SDS011;4167;48.162;11.542;2022-07-12T11:13:54;1.63;;;1.02;;
8254;SDS011;4167;48.162;11.542;2022-07-12T11:16:21;1.00;;;1.00;;
8254;SDS011;4167;48.162;11.542;2022-07-12T11:18:49;1.15;;;1.05;;
8254;SDS011;4167;48.162;11.542;2022-07-12T11:21:17;0.80;;;0.80;;
8254;SDS011;4167;48.162;11.542;2022-07-12T11:23:44;1.27;;;1.00;;
8254;SDS011;4167;48.162;11.542;2022-07-12T11:26:13;0.90;;;0.85;;
8254;SDS011;4167;48.162;11.542;2022-07-12T11:28:42;0.65;;;0.63;;
8254;SDS011;4167;48.162;11.542;2022-07-12T11:31:10;0.90;;;0.90;;
8254;SDS011;4167;48.162;11.542;2022-07-12T11:33:38;1.40;;;1.30;;
8254;SDS011;4167;48.162;11.542;2022-07-12T11:36:07;0.75;;;0.70;;
8254;SDS011;4167;48.162;11.542;2022-07-12T11:38:35;1.65;;;0.98;;
8254;SDS011;4167;48.162;11.542;2022-07-12T11:41:04;0.47;;;0.47;;
8254;SDS011;4167;48.162;11.542;2022-07-12T11:43:35;2.17;;;1.00;;
8254;SDS011;4167;48.162;11.542;2022-07-12T11:46:04;1.40;;;0.80;;
8254;SDS011;4167;48.162;11.542;2022-07-12T11:48:31;2.25;;;1.00;;
8254;SDS011;4167;48.162;11.542;2022-07-12T11:51:00;5.85;;;1.25;;
8254;SDS011;4167;48.162;11.542;2022-07-12T11:53:28;0.70;;;0.70;;
8254;SDS011;4167;48.162;11.542;2022-07-12T11:55:56;1.30;;;0.60;;
8254;SDS011;4167;48.162;11.542;2022-07-12T11:58:24;2.15;;;0.70;;
8254;SDS011;4167;48.162;11.542;2022-07-12T12:00:53;0.50;;;0.50;;
8254;SDS011;4167;48.162;11.542;2022-07-12T12:03:21;0.93;;;0.80;;
8254;SDS011;4167;48.162;11.542;2022-07-12T12:05:49;0.95;;;0.80;;
8254;SDS011;4167;48.162;11.542;2022-07-12T12:08:17;3.22;;;0.85;;
8254;SDS011;4167;48.162;11.542;2022-07-12T12:10:52;2.33;;;0.80;;
8254;SDS011;4167;48.162;11.542;2022-07-12T12:13:20;0.82;;;0.70;;
8254;SDS011;4167;48.162;11.542;2022-07-12T12:15:51;0.75;;;0.75;;
8254;SDS011;4167;48.162;11.542;2022-07-12T12:18:31;0.70;;;0.70;;
8254;SDS011;4167;48.162;11.542;2022-07-12T12:20:59;0.57;;;0.57;;
8254;SDS011;4167;48.162;11.542;2022-07-12T12:23:28;0.88;;;0.68;;
8254;SDS011;4167;48.162;11.542;2022-07-12T12:26:08;1.48;;;1.10;;
8254;SDS011;4167;48.162;11.542;2022-07-12T12:28:45;1.50;;;1.40;;
8254;SDS011;4167;48.162;11.542;2022-07-12T12:31:15;0.70;;;0.70;;
8254;SDS011;4167;48.162;11.542;2022-07-12T12:33:44;0.82;;;0.73;;
8254;SDS011;4167;48.162;11.542;2022-07-12T12:36:13;0.93;;;0.73;;
8254;SDS011;4167;48.162;11.542;2022-07-12T12:38:42;0.60;;;0.60;;
8254;SDS011;4167;48.162;11.542;2022-07-12T12:41:10;3.67;;;0.90;;
8254;SDS011;4167;48.162;11.542;2022-07-12T12:43:37;1.15;;;0.75;;
8254;SDS011;4167;48.162;11.542;2022-07-12T12:46:04;0.70;;;0.60;;
8254;SDS011;4167;48.162;11.542;2022-07-12T12:48:32;0.55;;;0.55;;
8254;SDS011;4167;48.162;11.542;2022-07-12T12:51:05;1.33;;;0.88;;
8254;SDS011;4167;48.162;11.542;2022-07-12T12:53:33;1.20;;;0.80;;
8254;SDS011;4167;48.162;11.542;2022-07-12T12:56:04;1.08;;;0.70;;
8254;SDS011;4167;48.162;11.542;2022-07-12T12:58:33;2.20;;;1.00;;
8254;SDS011;4167;48.162;11.542;2022-07-12T13:01:00;0.70;;;0.70;;
8254;SDS011;4167;48.162;11.542;2022-07-12T13:03:27;1.95;;;1.02;;
8254;SDS011;4167;48.162;11.542;2022-07-12T13:05:54;2.17;;;1.58;;
8254;SDS011;4167;48.162;11.542;2022-07-12T13:08:24;0.50;;;0.50;;
8254;SDS011;4167;48.162;11.542;2022-07-12T13:10:52;0.60;;;0.60;;
8254;SDS011;4167;48.162;11.542;2022-07-12T13:13:33;0.63;;;0.63;;
8254;SDS011;4167;48.162;11.542;2022-07-12T13:16:00;0.70;;;0.50;;
8254;SDS011;4167;48.162;11.542;2022-07-12T13:18:28;1.13;;;0.60;;
8254;SDS011;4167;48.162;11.542;2022-07-12T13:20:55;0.90;;;0.70;;
8254;SDS011;4167;48.162;11.542;2022-07-12T13:23:23;0.75;;;0.75;;
8254;SDS011;4167;48.162;11.542;2022-07-12T13:25:50;0.82;;;0.80;;
8254;SDS011;4167;48.162;11.542;2022-07-12T13:28:17;2.35;;;0.70;;
8254;SDS011;4167;48.162;11.542;2022-07-12T13:30:45;1.25;;;0.90;;
8254;SDS011;4167;48.162;11.542;2022-07-12T13:33:12;0.80;;;0.80;;
8254;SDS011;4167;48.162;11.542;2022-07-12T13:35:40;1.58;;;1.02;;
8254;SDS011;4167;48.162;11.542;2022-07-12T13:38:07;1.63;;;0.70;;
8254;SDS011;4167;48.162;11.542;2022-07-12T13:40:36;1.23;;;0.65;;
8254;SDS011;4167;48.162;11.542;2022-07-12T13:43:03;2.78;;;0.70;;
8254;SDS011;4167;48.162;11.542;2022-07-12T13:45:30;1.35;;;0.75;;
8254;SDS011;4167;48.162;11.542;2022-07-12T13:47:59;0.77;;;0.77;;
8254;SDS011;4167;48.162;11.542;2022-07-12T13:50:27;0.73;;;0.73;;
8254;SDS011;4167;48.162;11.542;2022-07-12T13:52:54;0.70;;;0.70;;
8254;SDS011;4167;48.162;11.542;2022-07-12T13:55:21;0.75;;;0.75;;
8254;SDS011;4167;48.162;11.542;2022-07-12T13:57:49;1.00;;;0.70;;
8254;SDS011;4167;48.162;11.542;2022-07-12T14:00:17;0.60;;;0.60;;
8254;SDS011;4167;48.162;11.542;2022-07-12T14:02:45;1.83;;;0.80;;
8254;SDS011;4167;48.162;11.542;2022-07-12T14:05:13;0.57;;;0.57;;
8254;SDS011;4167;48.162;11.542;2022-07-12T14:07:41;0.70;;;0.70;;
8254;SDS011;4167;48.162;11.542;2022-07-12T14:10:09;1.38;;;0.70;;
8254;SDS011;4167;48.162;11.542;2022-07-12T14:12:38;2.10;;;0.73;;
8254;SDS011;4167;48.162;11.542;2022-07-12T14:15:07;0.65;;;0.65;;
8254;SDS011;4167;48.162;11.542;2022-07-12T14:18:01;2.85;;;1.02;;
8254;SDS011;4167;48.162;11.542;2022-07-12T14:20:29;1.00;;;0.70;;
8254;SDS011;4167;48.162;11.542;2022-07-12T14:22:56;1.17;;;0.85;;
8254;SDS011;4167;48.162;11.542;2022-07-12T14:25:23;0.52;;;0.52;;
8254;SDS011;4167;48.162;11.542;2022-07-12T14:27:50;0.60;;;0.60;;
8254;SDS011;4167;48.162;11.542;2022-07-12T14:30:19;1.05;;;0.70;;
8254;SDS011;4167;48.162;11.542;2022-07-12T14:32:46;0.70;;;0.70;;
8254;SDS011;4167;48.162;11.542;2022-07-12T14:35:13;0.98;;;0.88;;
8254;SDS011;4167;48.162;11.542;2022-07-12T14:37:40;3.30;;;1.10;;
8254;SDS011;4167;48.162;11.542;2022-07-12T14:40:08;0.90;;;0.80;;
8254;SDS011;4167;48.162;11.542;2022-07-12T14:42:36;1.30;;;1.20;;
8254;SDS011;4167;48.162;11.542;2022-07-12T14:45:03;0.70;;;0.68;;
8254;SDS011;4167;48.162;11.542;2022-07-12T14:47:31;2.50;;;0.63;;
8254;SDS011;4167;48.162;11.542;2022-07-12T14:49:58;4.03;;;0.80;;
8254;SDS011;4167;48.162;11.542;2022-07-12T14:52:26;2.20;;;0.80;;
8254;SDS011;4167;48.162;11.542;2022-07-12T14:54:53;1.27;;;0.60;;
8254;SDS011;4167;48.162;11.542;2022-07-12T14:57:21;1.40;;;0.80;;
8254;SDS011;4167;48.162;11.542;2022-07-12T14:59:48;1.30;;;0.98;;
8254;SDS011;4167;48.162;11.542;2022-07-12T15:02:15;0.98;;;0.90;;
8254;SDS011;4167;48.162;11.542;2022-07-12T15:04:44;0.63;;;0.63;;
8254;SDS011;4167;48.162;11.542;2022-07-12T15:07:11;0.95;;;0.73;;
8254;SDS011;4167;48.162;11.542;2022-07-12T15:09:38;1.02;;;0.85;;
8254;SDS011;4167;48.162;11.542;2022-07-12T15:12:05;1.38;;;0.90;;
8254;SDS011;4167;48.162;11.542;2022-07-12T15:14:32;3.20;;;1.10;;
8254;SDS011;4167;48.162;11.542;2022-07-12T15:16:59;0.90;;;0.90;;
8254;SDS011;4167;48.162;11.542;2022-07-12T15:19:26;2.15;;;0.90;;